createdAt,value
2019-05-02T00:01:06.766Z,15.00
2019-05-02T00:03:35.889Z,15.00
2019-05-02T00:06:07.428Z,15.00
2019-05-02T00:08:44.095Z,14.90
2019-05-02T00:11:13.242Z,14.90
2019-05-02T00:13:41.659Z,14.90
2019-05-02T00:16:14.193Z,14.90
2019-05-02T00:18:40.568Z,14.90
2019-05-02T00:21:09.392Z,14.80
2019-05-02T00:23:37.812Z,14.80
2019-05-02T00:26:06.378Z,14.80
2019-05-02T00:28:34.708Z,14.70
2019-05-02T00:31:07.377Z,14.70
2019-05-02T00:33:34.349Z,14.70
2019-05-02T00:36:02.492Z,14.70
2019-05-02T00:38:33.391Z,14.60
2019-05-02T00:41:02.161Z,14.60
2019-05-02T00:43:34.414Z,14.60
2019-05-02T00:46:00.978Z,14.60
2019-05-02T00:48:49.050Z,14.50
2019-05-02T00:51:17.597Z,14.50
2019-05-02T00:53:48.425Z,14.50
2019-05-02T00:56:15.788Z,14.50
2019-05-02T00:58:44.312Z,14.50
2019-05-02T01:01:37.707Z,14.40
2019-05-02T01:04:12.144Z,14.50
2019-05-02T01:06:40.160Z,14.40
2019-05-02T01:09:11.152Z,14.40
2019-05-02T01:11:38.848Z,14.30
2019-05-02T01:14:07.368Z,14.30
2019-05-02T01:16:35.721Z,14.30
2019-05-02T01:19:04.133Z,14.20
2019-05-02T01:21:34.003Z,14.30
2019-05-02T01:24:02.933Z,14.30
2019-05-02T01:26:35.316Z,14.20
2019-05-02T01:29:29.835Z,14.20
2019-05-02T01:32:25.272Z,14.20
2019-05-02T01:35:04.516Z,14.10
2019-05-02T01:37:54.912Z,14.10
2019-05-02T01:40:22.261Z,14.10
2019-05-02T01:42:51.098Z,14.10
2019-05-02T01:45:19.591Z,14.00
2019-05-02T01:47:47.490Z,14.10
2019-05-02T01:50:15.611Z,14.00
2019-05-02T01:52:43.841Z,13.90
2019-05-02T01:55:12.398Z,13.90
2019-05-02T01:57:44.844Z,14.00
2019-05-02T02:00:11.822Z,13.90
2019-05-02T02:02:40.324Z,13.90
2019-05-02T02:05:08.306Z,13.90
2019-05-02T02:07:36.504Z,13.80
2019-05-02T02:10:05.320Z,13.80
2019-05-02T02:12:33.728Z,13.80
2019-05-02T02:15:02.036Z,13.80
2019-05-02T02:17:29.905Z,13.80
2019-05-02T02:20:00.243Z,13.80
2019-05-02T02:22:45.174Z,13.80
2019-05-02T02:25:39.235Z,13.80
2019-05-02T02:28:07.484Z,13.70
2019-05-02T02:30:35.430Z,13.70
2019-05-02T02:33:07.354Z,13.70
2019-05-02T02:35:33.999Z,13.60
2019-05-02T02:38:02.392Z,13.60
2019-05-02T02:40:33.777Z,13.60
2019-05-02T02:43:10.126Z,13.60
2019-05-02T02:45:59.709Z,13.50
2019-05-02T02:48:33.532Z,13.50
2019-05-02T02:50:58.197Z,13.50
2019-05-02T02:53:32.136Z,13.50
2019-05-02T02:56:03.510Z,13.50
2019-05-02T02:58:44.132Z,13.40
2019-05-02T03:01:01.791Z,13.40
2019-05-02T03:03:31.386Z,13.40
2019-05-02T03:06:05.720Z,13.40
2019-05-02T03:08:29.382Z,13.40
2019-05-02T03:11:01.459Z,13.40
2019-05-02T03:13:51.258Z,13.30
2019-05-02T03:16:12.775Z,13.40
2019-05-02T03:18:43.308Z,13.40
2019-05-02T03:21:13.386Z,13.40
2019-05-02T03:23:40.350Z,13.40
2019-05-02T03:26:14.932Z,13.30
2019-05-02T03:28:38.242Z,13.40
2019-05-02T03:31:21.029Z,13.30
2019-05-02T03:33:51.995Z,13.40
2019-05-02T03:36:26.100Z,13.40
2019-05-02T03:38:36.409Z,13.30
2019-05-02T03:41:04.701Z,13.30
2019-05-02T03:43:33.458Z,13.30
2019-05-02T03:46:01.738Z,13.30
2019-05-02T03:48:29.806Z,13.30
2019-05-02T03:50:57.768Z,13.20
2019-05-02T03:53:27.592Z,13.20
2019-05-02T03:55:55.719Z,13.20
2019-05-02T03:58:23.845Z,13.20
2019-05-02T04:01:00.373Z,13.20
2019-05-02T04:03:21.977Z,13.20
2019-05-02T04:05:51.336Z,13.20
2019-05-02T04:08:20.928Z,13.10
2019-05-02T04:11:24.581Z,13.20
2019-05-02T04:13:59.769Z,13.10
2019-05-02T04:16:29.100Z,13.10
2019-05-02T04:18:58.452Z,13.00
2019-05-02T04:21:26.783Z,13.00
2019-05-02T04:24:07.483Z,13.10
2019-05-02T04:26:26.150Z,13.00
2019-05-02T04:28:54.079Z,13.00
2019-05-02T04:31:25.056Z,13.10
2019-05-02T04:33:52.083Z,13.00
2019-05-02T04:36:20.113Z,13.10
2019-05-02T04:38:52.169Z,13.10
2019-05-02T04:41:28.254Z,13.10
2019-05-02T04:43:57.324Z,13.10
2019-05-02T04:46:25.836Z,13.10
2019-05-02T04:48:49.805Z,13.10
2019-05-02T04:51:20.266Z,13.10
2019-05-02T04:53:49.755Z,13.00
2019-05-02T04:56:18.580Z,13.10
2019-05-02T04:58:49.492Z,13.10
2019-05-02T05:01:16.524Z,13.10
2019-05-02T05:03:49.274Z,13.20
2019-05-02T05:06:14.644Z,13.20
2019-05-02T05:08:42.611Z,13.10
2019-05-02T05:11:13.923Z,13.20
2019-05-02T05:13:40.452Z,13.20
2019-05-02T05:16:12.897Z,13.20
2019-05-02T05:18:38.081Z,13.30
2019-05-02T05:21:10.324Z,13.30
2019-05-02T05:24:01.735Z,13.30
2019-05-02T05:26:33.993Z,13.30
2019-05-02T05:29:01.390Z,13.30
2019-05-02T05:31:29.420Z,13.30
2019-05-02T05:33:57.905Z,13.30
2019-05-02T05:36:32.666Z,13.40
2019-05-02T05:38:57.997Z,13.40
2019-05-02T05:41:27.772Z,13.30
2019-05-02T05:43:57.341Z,13.30
2019-05-02T05:46:27.779Z,13.40
2019-05-02T05:48:55.252Z,13.40
2019-05-02T05:51:23.221Z,13.40
2019-05-02T05:53:52.390Z,13.40
2019-05-02T05:56:21.003Z,13.40
2019-05-02T05:58:52.573Z,13.40
2019-05-02T06:01:20.410Z,13.40
2019-05-02T06:03:48.790Z,13.40
2019-05-02T06:06:22.861Z,13.40
2019-05-02T06:08:49.267Z,13.40
2019-05-02T06:11:19.955Z,13.50
2019-05-02T06:13:48.932Z,13.50
2019-05-02T06:16:17.815Z,13.50
2019-05-02T06:18:45.854Z,13.60
2019-05-02T06:21:16.748Z,13.60
2019-05-02T06:23:43.663Z,13.60
2019-05-02T06:26:13.650Z,13.70
2019-05-02T06:28:43.117Z,13.70
2019-05-02T06:31:11.163Z,13.60
2019-05-02T06:33:39.042Z,13.60
2019-05-02T06:36:07.109Z,13.70
2019-05-02T06:38:35.006Z,13.60
2019-05-02T06:41:03.018Z,13.70
2019-05-02T06:43:30.977Z,13.70
2019-05-02T06:45:59.004Z,13.80
2019-05-02T06:48:26.997Z,13.80
2019-05-02T06:50:56.363Z,13.80
2019-05-02T06:53:24.659Z,13.90
2019-05-02T06:55:52.610Z,13.90
2019-05-02T06:58:20.580Z,14.00
2019-05-02T07:00:57.464Z,14.00
2019-05-02T07:03:18.341Z,14.00
2019-05-02T07:05:48.927Z,14.10
2019-05-02T07:08:16.221Z,14.10
2019-05-02T07:10:45.151Z,14.10
2019-05-02T07:13:15.108Z,14.20
2019-05-02T07:16:16.199Z,14.20
2019-05-02T07:18:49.659Z,14.20
2019-05-02T07:21:22.958Z,14.30
2019-05-02T07:23:48.595Z,14.30
2019-05-02T07:26:21.036Z,14.40
2019-05-02T07:28:47.787Z,14.40
2019-05-02T07:31:15.856Z,14.50
2019-05-02T07:33:43.924Z,14.50
2019-05-02T07:36:11.836Z,14.50
2019-05-02T07:38:39.793Z,14.50
2019-05-02T07:41:07.913Z,14.60
2019-05-02T07:43:35.944Z,14.60
2019-05-02T07:46:04.290Z,14.60
2019-05-02T07:48:32.289Z,14.60
2019-05-02T07:51:00.421Z,14.60
2019-05-02T07:53:28.428Z,14.60
2019-05-02T07:55:56.364Z,14.60
2019-05-02T07:58:24.501Z,14.70
2019-05-02T08:00:52.425Z,14.70
2019-05-02T08:03:20.437Z,14.80
2019-05-02T08:05:48.529Z,14.80
2019-05-02T08:08:16.381Z,14.80
2019-05-02T08:10:44.346Z,14.80
2019-05-02T08:13:17.333Z,14.90
2019-05-02T08:15:45.746Z,14.90
2019-05-02T08:18:11.808Z,15.00
2019-05-02T08:20:39.747Z,15.00
2019-05-02T08:23:07.736Z,15.00
2019-05-02T08:25:35.837Z,15.00
2019-05-02T08:28:16.072Z,15.10
2019-05-02T08:30:44.723Z,15.10
2019-05-02T08:33:12.741Z,15.20
2019-05-02T08:35:40.655Z,15.20
2019-05-02T08:38:12.470Z,15.20
2019-05-02T08:40:42.403Z,15.30
2019-05-02T08:43:09.281Z,15.30
2019-05-02T08:45:38.202Z,15.40
2019-05-02T08:48:07.530Z,15.40
2019-05-02T08:50:35.596Z,15.50
2019-05-02T08:53:03.652Z,15.60
2019-05-02T08:55:31.670Z,15.60
2019-05-02T08:57:59.634Z,15.60
2019-05-02T09:00:27.554Z,15.70
2019-05-02T09:02:57.049Z,15.70
2019-05-02T09:05:26.888Z,15.80
2019-05-02T09:07:54.812Z,15.80
2019-05-02T09:10:22.820Z,15.80
2019-05-02T09:12:52.094Z,15.90
2019-05-02T09:15:22.201Z,15.90
2019-05-02T09:17:52.826Z,16.00
2019-05-02T09:20:21.493Z,16.00
2019-05-02T09:22:54.104Z,16.10
2019-05-02T09:25:21.823Z,16.10
2019-05-02T09:27:49.541Z,16.00
2019-05-02T09:30:22.758Z,16.00
2019-05-02T09:32:48.290Z,16.10
2019-05-02T09:35:16.416Z,16.10
2019-05-02T09:37:47.275Z,16.10
2019-05-02T09:40:16.797Z,16.20
2019-05-02T09:42:47.620Z,16.30
2019-05-02T09:45:22.548Z,16.20
2019-05-02T09:47:57.268Z,16.20
2019-05-02T09:50:25.124Z,16.30
2019-05-02T09:52:52.244Z,16.40
2019-05-02T09:55:22.479Z,16.40
2019-05-02T09:57:51.789Z,16.50
2019-05-02T10:00:36.034Z,16.50
2019-05-02T10:03:02.706Z,16.60
2019-05-02T10:05:32.247Z,16.70
2019-05-02T10:08:03.253Z,16.80
2019-05-02T10:10:32.375Z,16.90
2019-05-02T10:13:02.561Z,17.00
2019-05-02T10:15:32.544Z,17.10
2019-05-02T10:18:08.818Z,17.10
2019-05-02T10:20:34.155Z,17.20
2019-05-02T10:23:01.866Z,17.30
2019-05-02T10:25:32.686Z,17.30
2019-05-02T10:27:59.429Z,17.30
2019-05-02T10:30:33.650Z,17.30
2019-05-02T10:33:02.475Z,17.30
2019-05-02T10:35:37.200Z,17.30
2019-05-02T10:38:03.576Z,17.40
2019-05-02T10:40:32.149Z,17.60
2019-05-02T10:43:00.310Z,17.60
2019-05-02T10:45:28.266Z,17.60
2019-05-02T10:47:56.405Z,17.60
2019-05-02T10:50:35.268Z,17.60
2019-05-02T10:53:11.217Z,17.70
2019-05-02T10:55:33.334Z,17.80
2019-05-02T10:58:01.883Z,17.80
2019-05-02T11:00:34.517Z,17.90
2019-05-02T11:03:31.943Z,18.00
2019-05-02T11:06:05.489Z,18.10
2019-05-02T11:08:31.955Z,18.20
2019-05-02T11:11:03.262Z,18.30
2019-05-02T11:13:53.356Z,18.30
2019-05-02T11:16:32.133Z,18.40
2019-05-02T11:19:09.861Z,18.50
2019-05-02T11:21:37.831Z,18.60
2019-05-02T11:24:05.954Z,18.70
2019-05-02T11:26:33.892Z,18.70
2019-05-02T11:29:03.012Z,18.90
2019-05-02T11:31:32.494Z,18.90
2019-05-02T11:34:01.807Z,19.00
2019-05-02T11:36:30.101Z,19.10
2019-05-02T11:39:05.524Z,19.10
2019-05-02T11:41:28.587Z,19.10
2019-05-02T11:43:56.416Z,19.20
2019-05-02T11:46:24.402Z,19.20
2019-05-02T11:48:56.231Z,19.20
2019-05-02T11:51:22.670Z,19.40
2019-05-02T11:53:52.660Z,19.40
2019-05-02T11:56:22.231Z,19.50
2019-05-02T11:59:03.894Z,19.40
2019-05-02T12:01:39.820Z,19.40
2019-05-02T12:04:12.120Z,19.50
2019-05-02T12:06:37.673Z,19.60
2019-05-02T12:09:09.062Z,19.70
2019-05-02T12:11:37.108Z,19.80
2019-05-02T12:14:43.778Z,19.90
2019-05-02T12:17:12.046Z,20.00
2019-05-02T12:19:39.892Z,20.10
2019-05-02T12:22:12.911Z,20.20
2019-05-02T12:24:40.924Z,20.20
2019-05-02T12:27:07.732Z,20.30
2019-05-02T12:29:35.645Z,20.40
2019-05-02T12:32:03.580Z,20.50
2019-05-02T12:34:32.555Z,20.60
2019-05-02T12:37:01.769Z,20.70
2019-05-02T12:39:31.625Z,20.80
2019-05-02T12:42:45.143Z,20.80
2019-05-02T12:45:21.935Z,20.90
2019-05-02T12:47:49.972Z,21.00
2019-05-02T12:50:17.972Z,21.10
2019-05-02T12:52:45.828Z,21.00
2019-05-02T12:55:13.736Z,21.10
2019-05-02T12:57:42.838Z,21.10
2019-05-02T13:00:12.831Z,21.10
2019-05-02T13:03:03.226Z,21.10
2019-05-02T13:05:48.942Z,21.10
2019-05-02T13:08:16.971Z,21.20
2019-05-02T13:11:13.919Z,21.20
2019-05-02T13:13:41.899Z,21.20
2019-05-02T13:16:12.054Z,21.20
2019-05-02T13:18:39.821Z,21.30
2019-05-02T13:21:15.135Z,21.40
2019-05-02T13:23:46.343Z,21.30
2019-05-02T13:26:19.593Z,21.30
2019-05-02T13:28:44.812Z,21.30
2019-05-02T13:31:23.120Z,21.30
2019-05-02T13:33:58.021Z,21.20
2019-05-02T13:36:42.897Z,21.20
2019-05-02T13:39:18.251Z,21.20
2019-05-02T13:41:46.447Z,21.20
2019-05-02T13:44:16.668Z,21.10
2019-05-02T13:46:44.698Z,21.10
2019-05-02T13:49:12.839Z,21.10
2019-05-02T13:51:42.606Z,21.20
2019-05-02T13:54:12.497Z,21.30
2019-05-02T13:56:48.067Z,21.20
2019-05-02T13:59:16.977Z,21.20
2019-05-02T14:01:46.022Z,21.20
2019-05-02T14:04:14.981Z,21.30
2019-05-02T14:06:43.385Z,21.30
2019-05-02T14:09:33.705Z,21.30
2019-05-02T14:12:23.747Z,21.30
2019-05-02T14:15:16.226Z,21.30
2019-05-02T14:17:44.004Z,21.40
2019-05-02T14:20:13.752Z,21.30
2019-05-02T14:22:42.563Z,21.30
2019-05-02T14:25:12.264Z,21.20
2019-05-02T14:27:42.042Z,21.20
2019-05-02T14:30:12.158Z,21.30
2019-05-02T14:32:42.331Z,21.20
2019-05-02T14:35:36.504Z,21.20
2019-05-02T14:38:13.108Z,21.10
2019-05-02T14:40:49.471Z,21.10
2019-05-02T14:43:37.991Z,21.10
2019-05-02T14:46:06.987Z,21.10
2019-05-02T14:48:41.778Z,21.00
2019-05-02T14:51:08.724Z,21.00
2019-05-02T14:53:36.829Z,20.90
2019-05-02T14:56:15.315Z,20.90
2019-05-02T14:58:43.301Z,20.90
2019-05-02T15:01:16.945Z,20.80
2019-05-02T15:03:42.345Z,20.70
2019-05-02T15:06:11.698Z,20.70
2019-05-02T15:08:43.503Z,20.60
2019-05-02T15:11:09.656Z,20.60
2019-05-02T15:13:41.020Z,20.50
2019-05-02T15:16:17.761Z,20.50
2019-05-02T15:18:47.640Z,20.40
2019-05-02T15:21:20.300Z,20.40
2019-05-02T15:23:48.957Z,20.40
2019-05-02T15:26:16.995Z,20.40
2019-05-02T15:28:44.944Z,20.40
2019-05-02T15:31:24.307Z,20.40
2019-05-02T15:34:07.509Z,20.30
2019-05-02T15:36:37.003Z,20.20
2019-05-02T15:41:39.895Z,20.20
2019-05-02T15:44:07.913Z,20.20
2019-05-02T15:46:35.898Z,20.10
2019-05-02T15:49:05.646Z,20.10
2019-05-02T15:51:38.101Z,20.00
2019-05-02T15:54:08.410Z,20.00
2019-05-02T15:56:52.552Z,20.00
2019-05-02T15:59:32.442Z,20.00
2019-05-02T16:02:05.544Z,20.00
2019-05-02T16:04:37.584Z,19.90
2019-05-02T16:07:08.384Z,20.00
2019-05-02T16:09:35.574Z,19.90
2019-05-02T16:12:03.810Z,19.90
2019-05-02T16:15:18.195Z,19.90
2019-05-02T16:17:37.087Z,19.90
2019-05-02T16:20:14.534Z,19.90
2019-05-02T16:22:46.233Z,19.80
2019-05-02T16:25:12.695Z,19.80
2019-05-02T16:27:45.268Z,19.80
2019-05-02T16:30:15.915Z,19.80
2019-05-02T16:32:53.238Z,19.70
2019-05-02T16:35:22.768Z,19.80
2019-05-02T16:37:52.328Z,19.70
2019-05-02T16:40:29.918Z,19.70
2019-05-02T16:42:52.577Z,19.70
2019-05-02T16:45:22.189Z,19.70
2019-05-02T16:47:58.658Z,19.70
2019-05-02T16:50:20.436Z,19.70
2019-05-02T16:52:48.513Z,19.70
2019-05-02T16:55:20.821Z,19.60
2019-05-02T16:57:48.106Z,19.60
2019-05-02T17:00:20.147Z,19.50
2019-05-02T17:02:48.055Z,19.40
2019-05-02T17:05:16.243Z,19.40
2019-05-02T17:08:10.557Z,19.40
2019-05-02T17:10:42.098Z,19.40
2019-05-02T17:13:09.937Z,19.40
2019-05-02T17:16:22.267Z,19.30
2019-05-02T17:18:54.953Z,19.30
2019-05-02T17:21:18.693Z,19.20
2019-05-02T17:23:49.614Z,19.20
2019-05-02T17:26:16.318Z,19.20
2019-05-02T17:28:47.095Z,19.20
2019-05-02T17:31:20.510Z,19.20
2019-05-02T17:33:46.146Z,19.10
2019-05-02T17:36:13.603Z,19.10
2019-05-02T17:38:41.844Z,19.10
2019-05-02T17:41:11.709Z,19.10
2019-05-02T17:43:42.166Z,19.00
2019-05-02T17:46:12.585Z,19.00
2019-05-02T17:48:39.443Z,19.00
2019-05-02T17:51:23.784Z,18.90
2019-05-02T17:53:53.443Z,18.90
2019-05-02T17:56:23.218Z,18.80
2019-05-02T17:58:54.231Z,18.80
2019-05-02T18:01:31.866Z,18.80
2019-05-02T18:04:01.639Z,18.70
2019-05-02T18:06:32.989Z,18.70
2019-05-02T18:08:59.501Z,18.60
2019-05-02T18:11:29.705Z,18.60
2019-05-02T18:14:19.767Z,18.60
2019-05-02T18:16:55.642Z,18.60
2019-05-02T18:19:24.563Z,18.50
2019-05-02T18:21:52.838Z,18.50
2019-05-02T18:24:22.285Z,18.50
2019-05-02T18:27:12.719Z,18.40
2019-05-02T18:29:42.578Z,18.40
2019-05-02T18:33:06.915Z,18.30
2019-05-02T18:35:29.951Z,18.30
2019-05-02T18:37:57.922Z,18.30
2019-05-02T18:40:29.379Z,18.30
2019-05-02T18:42:56.615Z,18.20
2019-05-02T18:45:57.989Z,18.20
2019-05-02T18:48:21.809Z,18.20
2019-05-02T18:50:50.672Z,18.10
2019-05-02T18:53:24.338Z,18.10
2019-05-02T18:55:51.716Z,18.10
2019-05-02T18:58:19.475Z,18.10
2019-05-02T19:00:47.473Z,18.10
2019-05-02T19:03:17.318Z,18.00
2019-05-02T19:05:46.726Z,18.00
2019-05-02T19:08:14.764Z,18.00
2019-05-02T19:11:01.375Z,18.00
2019-05-02T19:13:12.886Z,18.00
2019-05-02T19:16:34.987Z,18.00
2019-05-02T19:19:42.010Z,18.00
2019-05-02T19:22:27.995Z,18.00
2019-05-02T19:25:36.218Z,18.00
2019-05-02T19:28:14.906Z,18.00
2019-05-02T19:30:42.893Z,17.90
2019-05-02T19:33:12.295Z,17.90
2019-05-02T19:35:43.124Z,17.90
2019-05-02T19:38:11.807Z,17.90
2019-05-02T19:40:39.816Z,17.80
2019-05-02T19:43:07.895Z,17.80
2019-05-02T19:45:35.879Z,17.80
2019-05-02T19:48:03.733Z,17.80
2019-05-02T19:50:43.129Z,17.80
2019-05-02T19:53:17.148Z,17.80
2019-05-02T19:55:36.966Z,17.70
2019-05-02T19:58:06.534Z,17.70
2019-05-02T20:00:36.577Z,17.70
2019-05-02T20:03:05.507Z,17.70
2019-05-02T20:05:33.635Z,17.60
2019-05-02T20:08:36.088Z,17.60
2019-05-02T20:11:04.200Z,17.60
2019-05-02T20:13:32.604Z,17.60
2019-05-02T20:17:06.234Z,17.60
2019-05-02T20:19:34.998Z,17.50
2019-05-02T20:22:14.704Z,17.50
2019-05-02T20:25:00.196Z,17.50
2019-05-02T20:28:09.490Z,17.40
2019-05-02T20:30:37.442Z,17.40
2019-05-02T20:33:05.567Z,17.40
2019-05-02T20:35:33.463Z,17.30
2019-05-02T20:38:01.679Z,17.30
2019-05-02T20:40:31.880Z,17.30
2019-05-02T20:43:02.408Z,17.20
2019-05-02T20:45:32.127Z,17.20
2019-05-02T20:48:02.060Z,17.20
2019-05-02T20:50:31.691Z,17.20
2019-05-02T20:52:59.504Z,17.20
2019-05-02T20:55:27.962Z,17.10
2019-05-02T20:57:55.874Z,17.00
2019-05-02T21:00:27.174Z,17.00
2019-05-02T21:02:55.359Z,16.90
2019-05-02T21:05:27.524Z,17.00
2019-05-02T21:08:22.018Z,16.90
2019-05-02T21:10:53.264Z,16.90
2019-05-02T21:13:22.101Z,16.90
2019-05-02T21:16:35.082Z,16.80
2019-05-02T21:19:33.601Z,16.80
2019-05-02T21:22:27.413Z,16.70
2019-05-02T21:25:23.916Z,16.70
2019-05-02T21:28:32.104Z,16.60
2019-05-02T21:31:33.412Z,16.60
2019-05-02T21:34:02.571Z,16.50
2019-05-02T21:36:31.923Z,16.50
2019-05-02T21:39:00.058Z,16.40
2019-05-02T21:41:28.135Z,16.40
2019-05-02T21:43:56.162Z,16.40
2019-05-02T21:46:24.116Z,16.40
2019-05-02T21:48:52.735Z,16.50
2019-05-02T21:51:29.369Z,16.50
2019-05-02T21:54:16.819Z,16.50
2019-05-02T21:56:52.208Z,16.40
2019-05-02T21:59:22.356Z,16.50
2019-05-02T22:01:54.345Z,16.40
2019-05-02T22:04:22.702Z,16.40
2019-05-02T22:06:52.162Z,16.40
2019-05-02T22:09:22.817Z,16.40
2019-05-02T22:11:52.001Z,16.50
2019-05-02T22:14:42.012Z,16.40
2019-05-02T22:17:25.854Z,16.40
2019-05-02T22:20:20.522Z,16.30
2019-05-02T22:22:48.420Z,16.40
2019-05-02T22:25:17.232Z,16.30
2019-05-02T22:27:45.162Z,16.40
2019-05-02T22:30:13.873Z,16.40
2019-05-02T22:32:42.712Z,16.30
2019-05-02T22:35:12.209Z,16.40
2019-05-02T22:37:42.289Z,16.30
2019-05-02T22:40:13.445Z,16.30
2019-05-02T22:42:41.761Z,16.30
2019-05-02T22:45:12.404Z,16.30
2019-05-02T22:47:40.137Z,16.30
2019-05-02T22:50:09.661Z,16.30
2019-05-02T22:52:38.032Z,16.30
2019-05-02T22:55:06.742Z,16.20
2019-05-02T22:57:34.618Z,16.30
2019-05-02T23:00:03.226Z,16.20
2019-05-02T23:02:32.484Z,16.30
2019-05-02T23:05:01.926Z,16.20
2019-05-02T23:07:30.240Z,16.20
2019-05-02T23:09:59.051Z,16.20
2019-05-02T23:12:27.081Z,16.20
2019-05-02T23:14:55.431Z,16.20
2019-05-02T23:17:23.788Z,16.20
2019-05-02T23:19:52.801Z,16.20
2019-05-02T23:22:21.804Z,16.20
2019-05-02T23:25:08.233Z,16.20
2019-05-02T23:27:43.661Z,16.20
2019-05-02T23:30:15.156Z,16.20
2019-05-02T23:32:43.214Z,16.20
2019-05-02T23:35:11.869Z,16.20
2019-05-02T23:37:41.789Z,16.20
2019-05-02T23:40:12.375Z,16.10
2019-05-02T23:42:41.721Z,16.20
2019-05-02T23:45:11.970Z,16.10
2019-05-02T23:47:42.060Z,16.20
2019-05-02T23:50:12.132Z,16.20
2019-05-02T23:52:40.780Z,16.20
2019-05-02T23:55:09.289Z,16.30
2019-05-02T23:57:37.513Z,16.30
